createdAt,value
2018-09-15T00:00:01.924Z,62.57
2018-09-15T00:01:01.853Z,62.55
2018-09-15T00:02:01.903Z,62.77
2018-09-15T00:03:01.866Z,62.45
2018-09-15T00:04:02.043Z,62.36
2018-09-15T00:05:01.798Z,62.77
2018-09-15T00:06:01.705Z,62.48
2018-09-15T00:07:01.781Z,62.64
2018-09-15T00:08:02.066Z,62.76
2018-09-15T00:09:02.029Z,62.36
2018-09-15T00:10:01.938Z,62.66
2018-09-15T00:11:01.920Z,62.73
2018-09-15T00:12:01.877Z,62.65
2018-09-15T00:13:03.580Z,62.62
2018-09-15T00:14:02.094Z,62.82
2018-09-15T00:15:01.983Z,62.67
2018-09-15T00:16:04.425Z,62.29
2018-09-15T00:17:04.499Z,62.58
2018-09-15T00:18:04.259Z,62.38
2018-09-15T00:19:02.331Z,62.76
2018-09-15T00:20:02.498Z,62.41
2018-09-15T00:21:03.792Z,62.6
2018-09-15T00:22:04.013Z,62.52
2018-09-15T00:23:02.103Z,62.68
2018-09-15T00:24:04.808Z,62.6
2018-09-15T00:25:02.130Z,62.51
2018-09-15T00:26:04.348Z,62.5
2018-09-15T00:27:01.603Z,62.54
2018-09-15T00:28:04.477Z,62.59
2018-09-15T00:29:01.604Z,62.88
2018-09-15T00:30:04.433Z,62.76
2018-09-15T00:31:01.996Z,62.36
2018-09-15T00:32:02.132Z,62.62
2018-09-15T00:33:01.681Z,62.45
2018-09-15T00:34:02.019Z,62.41
2018-09-15T00:35:02.347Z,62.46
2018-09-15T00:36:02.109Z,62.53
2018-09-15T00:37:04.531Z,62.24
2018-09-15T00:38:04.542Z,62.41
2018-09-15T00:39:04.721Z,62.21
2018-09-15T00:40:02.003Z,62.69
2018-09-15T00:41:02.726Z,62.66
2018-09-15T00:42:04.211Z,62.45
2018-09-15T00:43:04.249Z,62.14
2018-09-15T00:44:02.001Z,62.45
2018-09-15T00:45:02.737Z,62.78
2018-09-15T00:46:04.599Z,62.58
2018-09-15T00:47:01.636Z,62.57
2018-09-15T00:48:02.315Z,62.5
2018-09-15T00:49:04.452Z,62.6
2018-09-15T00:50:04.626Z,62.78
2018-09-15T00:51:02.351Z,62.38
2018-09-15T00:52:03.781Z,62.8
2018-09-15T00:53:01.678Z,62.49
2018-09-15T00:54:04.586Z,62.56
2018-09-15T00:55:02.758Z,62.5
2018-09-15T00:56:04.379Z,62.43
2018-09-15T00:57:04.526Z,62.65
2018-09-15T00:58:04.324Z,62.57
2018-09-15T00:59:02.369Z,62.46
2018-09-15T01:00:02.040Z,62.3
2018-09-15T01:01:04.378Z,62.37
2018-09-15T01:02:04.556Z,62.42
2018-09-15T01:03:01.673Z,62.68
2018-09-15T01:04:04.621Z,62.44
2018-09-15T01:05:01.679Z,62.11
2018-09-15T01:06:04.556Z,62.39
2018-09-15T01:07:01.691Z,62.43
2018-09-15T01:08:03.762Z,62.51
2018-09-15T01:09:04.305Z,62.55
2018-09-15T01:10:04.446Z,62.42
2018-09-15T01:11:02.366Z,62.5
2018-09-15T01:12:02.059Z,62.47
2018-09-15T01:13:04.399Z,62.12
2018-09-15T01:14:02.200Z,62.43
2018-09-15T01:15:02.555Z,62.82
2018-09-15T01:16:01.886Z,62.37
2018-09-15T01:17:01.870Z,62.46
2018-09-15T01:18:02.299Z,62.18
2018-09-15T01:19:01.721Z,62.8
2018-09-15T01:20:02.111Z,62.31
2018-09-15T01:21:01.745Z,62.3
2018-09-15T01:22:02.079Z,62.33
2018-09-15T01:23:01.627Z,62.38
2018-09-15T01:24:02.025Z,62.36
2018-09-15T01:25:01.900Z,62.57
2018-09-15T01:26:02.218Z,62.38
2018-09-15T01:27:01.760Z,62.54
2018-09-15T01:28:01.843Z,62.65
2018-09-15T01:29:01.739Z,62.39
2018-09-15T01:30:01.958Z,62.4
2018-09-15T01:31:01.820Z,62.42
2018-09-15T01:32:01.749Z,62.52
2018-09-15T01:33:01.848Z,62.19
2018-09-15T01:34:01.903Z,62.36
2018-09-15T01:35:01.807Z,62.65
2018-09-15T01:36:01.921Z,62.32
2018-09-15T01:37:02.129Z,62.64
2018-09-15T01:38:01.706Z,62.54
2018-09-15T01:39:01.675Z,62.16
2018-09-15T01:40:01.924Z,62.69
2018-09-15T01:41:01.659Z,62.4
2018-09-15T01:42:02.199Z,62.67
2018-09-15T01:43:01.829Z,62.18
2018-09-15T01:44:01.879Z,61.95
2018-09-15T01:45:01.669Z,62.68
2018-09-15T01:46:01.815Z,62.51
2018-09-15T01:47:01.670Z,62.27
2018-09-15T01:48:02.069Z,62.36
2018-09-15T01:49:01.750Z,62.27
2018-09-15T01:50:01.810Z,62.34
2018-09-15T01:51:01.815Z,62.26
2018-09-15T01:52:01.896Z,62.08
2018-09-15T01:53:01.675Z,62.16
2018-09-15T01:54:01.922Z,62.31
2018-09-15T01:55:02.028Z,62.36
2018-09-15T01:56:01.966Z,62.44
2018-09-15T01:57:01.685Z,62.19
2018-09-15T01:58:01.805Z,62.44
2018-09-15T01:59:01.967Z,62.51
2018-09-15T02:00:01.932Z,62.25
2018-09-15T02:01:02.119Z,62.67
2018-09-15T02:02:01.883Z,62.55
2018-09-15T02:03:01.831Z,62.2
2018-09-15T02:04:01.745Z,62.26
2018-09-15T02:05:01.769Z,62.03
2018-09-15T02:06:01.860Z,62.38
2018-09-15T02:07:01.746Z,62.32
2018-09-15T02:08:01.981Z,62.39
2018-09-15T02:09:01.789Z,62.42
2018-09-15T02:10:01.862Z,62.11
2018-09-15T02:11:01.596Z,62.19
2018-09-15T02:12:01.756Z,62.17
2018-09-15T02:13:01.719Z,62.36
2018-09-15T02:14:01.889Z,61.84
2018-09-15T02:15:01.809Z,62.12
2018-09-15T02:16:01.804Z,62.1
2018-09-15T02:17:01.638Z,62.24
2018-09-15T02:18:01.757Z,61.99
2018-09-15T02:19:02.652Z,62.21
2018-09-15T02:20:01.782Z,62.1
2018-09-15T02:21:01.617Z,62.31
2018-09-15T02:22:02.103Z,62.33
2018-09-15T02:23:01.971Z,62.3
2018-09-15T02:24:01.780Z,62.34
2018-09-15T02:25:01.724Z,62.31
2018-09-15T02:26:01.851Z,62.02
2018-09-15T02:27:01.716Z,61.99
2018-09-15T02:28:01.785Z,61.98
2018-09-15T02:29:01.703Z,62.02
2018-09-15T02:30:01.915Z,62.23
2018-09-15T02:31:01.660Z,62.16
2018-09-15T02:32:01.732Z,62.56
2018-09-15T02:33:01.706Z,62.31
2018-09-15T02:34:01.855Z,62.31
2018-09-15T02:35:01.941Z,62.06
2018-09-15T02:36:02.053Z,62.41
2018-09-15T02:37:02.143Z,62.11
2018-09-15T02:38:02.242Z,62.06
2018-09-15T02:39:01.800Z,62.12
2018-09-15T02:40:01.878Z,62.15
2018-09-15T02:41:01.633Z,62.04
2018-09-15T02:42:01.820Z,62.19
2018-09-15T02:43:01.939Z,61.91
2018-09-15T02:44:02.221Z,61.89
2018-09-15T02:45:02.242Z,62.16
2018-09-15T02:46:01.870Z,62.17
2018-09-15T02:47:01.839Z,62.28
2018-09-15T02:48:02.076Z,61.95
2018-09-15T02:49:02.090Z,62.25
2018-09-15T02:50:01.895Z,62.16
2018-09-15T02:51:01.727Z,62.28
2018-09-15T02:52:02.251Z,62.05
2018-09-15T02:53:02.011Z,62.26
2018-09-15T02:54:01.931Z,62.42
2018-09-15T02:55:01.802Z,61.76
2018-09-15T02:56:02.130Z,61.77
2018-09-15T02:57:01.881Z,62.11
2018-09-15T02:58:02.108Z,62.24
2018-09-15T02:59:01.620Z,62.09
2018-09-15T03:00:01.983Z,62.17
2018-09-15T03:01:01.821Z,61.96
2018-09-15T03:02:02.204Z,62.23
2018-09-15T03:03:02.061Z,62.17
2018-09-15T03:04:01.891Z,62
2018-09-15T03:05:02.171Z,62.12
2018-09-15T03:06:02.170Z,62.45
2018-09-15T03:07:01.766Z,62.45
2018-09-15T03:08:01.913Z,62.05
2018-09-15T03:09:01.803Z,62.04
2018-09-15T03:10:02.354Z,62.38
2018-09-15T03:11:01.736Z,62.21
2018-09-15T03:12:02.064Z,62.01
2018-09-15T03:13:02.072Z,62.05
2018-09-15T03:14:02.290Z,62.12
2018-09-15T03:15:01.973Z,62.12
2018-09-15T03:16:01.654Z,62.16
2018-09-15T03:17:02.206Z,62.08
2018-09-15T03:18:02.023Z,62.11
2018-09-15T03:19:01.637Z,62.21
2018-09-15T03:20:01.843Z,62.37
2018-09-15T03:21:01.700Z,62.4
2018-09-15T03:22:01.799Z,62.07
2018-09-15T03:23:02.159Z,62.25
2018-09-15T03:24:01.808Z,62.28
2018-09-15T03:25:02.200Z,62.09
2018-09-15T03:26:01.894Z,61.98
2018-09-15T03:27:01.693Z,62.02
2018-09-15T03:28:01.895Z,62.33
2018-09-15T03:29:01.622Z,62.16
2018-09-15T03:30:01.714Z,62.21
2018-09-15T03:31:02.130Z,62.01
2018-09-15T03:32:01.707Z,61.93
2018-09-15T03:33:01.829Z,62.27
2018-09-15T03:34:01.819Z,61.95
2018-09-15T03:35:01.631Z,62.14
2018-09-15T03:36:01.713Z,62.02
2018-09-15T03:37:01.831Z,62.48
2018-09-15T03:38:01.847Z,62.07
2018-09-15T03:39:01.683Z,62.06
2018-09-15T03:40:01.836Z,61.8
2018-09-15T03:41:01.703Z,62.14
2018-09-15T03:42:02.316Z,62.1
2018-09-15T03:43:01.992Z,61.99
2018-09-15T03:44:02.061Z,61.87
2018-09-15T03:45:02.015Z,61.89
2018-09-15T03:46:02.195Z,62.2
2018-09-15T03:47:01.970Z,61.73
2018-09-15T03:48:02.171Z,62.18
2018-09-15T03:49:01.736Z,62.01
2018-09-15T03:50:01.906Z,62.17
2018-09-15T03:51:02.115Z,62.21
2018-09-15T03:52:01.794Z,61.86
2018-09-15T03:53:01.772Z,62.3
2018-09-15T03:54:01.762Z,61.88
2018-09-15T03:55:01.682Z,62.11
2018-09-15T03:56:01.955Z,62.08
2018-09-15T03:57:01.936Z,62.22
2018-09-15T03:58:02.009Z,62.16
2018-09-15T03:59:01.833Z,61.82
2018-09-15T04:00:02.009Z,62.21
2018-09-15T04:01:01.865Z,62.13
2018-09-15T04:02:01.704Z,62.08
2018-09-15T04:03:02.326Z,61.98
2018-09-15T04:04:01.842Z,61.89
2018-09-15T04:05:01.851Z,61.81
2018-09-15T04:06:01.943Z,62.3
2018-09-15T04:07:01.730Z,62.03
2018-09-15T04:08:01.933Z,62.02
2018-09-15T04:09:01.996Z,61.96
2018-09-15T04:10:01.734Z,62.16
2018-09-15T04:11:01.528Z,61.99
2018-09-15T04:12:01.660Z,62.05
2018-09-15T04:13:01.759Z,61.71
2018-09-15T04:14:01.804Z,62.16
2018-09-15T04:15:01.821Z,61.91
2018-09-15T04:16:01.938Z,62.38
2018-09-15T04:17:01.935Z,61.96
2018-09-15T04:18:01.914Z,62.12
2018-09-15T04:19:02.459Z,61.92
2018-09-15T04:20:01.858Z,62.04
2018-09-15T04:21:01.660Z,61.96
2018-09-15T04:22:01.682Z,62.02
2018-09-15T04:23:01.823Z,62.15
2018-09-15T04:24:01.885Z,61.97
2018-09-15T04:25:02.161Z,61.98
2018-09-15T04:26:01.828Z,61.67
2018-09-15T04:27:01.639Z,62.08
2018-09-15T04:28:01.805Z,62.21
2018-09-15T04:29:01.958Z,62.01
2018-09-15T04:30:02.018Z,62.36
2018-09-15T04:31:01.843Z,61.67
2018-09-15T04:32:02.108Z,62.43
2018-09-15T04:33:02.021Z,61.97
2018-09-15T04:34:01.812Z,62.36
2018-09-15T04:35:01.803Z,62.07
2018-09-15T04:36:01.941Z,62.01
2018-09-15T04:37:01.749Z,61.76
2018-09-15T04:38:02.122Z,61.73
2018-09-15T04:39:02.140Z,61.85
2018-09-15T04:40:01.852Z,61.95
2018-09-15T04:41:01.793Z,61.82
2018-09-15T04:42:01.948Z,62.02
2018-09-15T04:43:01.714Z,61.72
2018-09-15T04:44:01.871Z,61.94
2018-09-15T04:45:01.841Z,61.95
2018-09-15T04:46:01.875Z,62.05
2018-09-15T04:47:01.732Z,62.12
2018-09-15T04:48:01.701Z,61.96
2018-09-15T04:49:01.857Z,62.01
2018-09-15T04:50:01.843Z,61.78
2018-09-15T04:51:01.872Z,61.76
2018-09-15T04:52:01.801Z,62
2018-09-15T04:53:01.796Z,61.87
2018-09-15T04:54:01.720Z,61.83
2018-09-15T04:55:01.761Z,61.98
2018-09-15T04:56:01.860Z,61.79
2018-09-15T04:57:01.802Z,62.11
2018-09-15T04:58:01.861Z,61.99
2018-09-15T04:59:01.870Z,61.82
2018-09-15T05:00:01.966Z,62.03
2018-09-15T05:01:01.972Z,62.07
2018-09-15T05:02:01.838Z,62.04
2018-09-15T05:03:01.800Z,62.3
2018-09-15T05:04:01.695Z,62.06
2018-09-15T05:05:02.165Z,61.81
2018-09-15T05:06:01.837Z,62.04
2018-09-15T05:07:01.776Z,61.84
2018-09-15T05:08:02.056Z,61.7
2018-09-15T05:09:01.748Z,62.23
2018-09-15T05:10:01.839Z,62.11
2018-09-15T05:11:01.677Z,62.09
2018-09-15T05:12:01.937Z,62.43
2018-09-15T05:13:01.987Z,61.89
2018-09-15T05:14:01.767Z,62.28
2018-09-15T05:15:01.800Z,62.43
2018-09-15T05:16:01.747Z,62.16
2018-09-15T05:17:01.719Z,62.1
2018-09-15T05:18:02.038Z,62.44
2018-09-15T05:19:01.640Z,61.95
2018-09-15T05:20:02.257Z,61.79
2018-09-15T05:21:01.972Z,62.35
2018-09-15T05:22:01.784Z,61.91
2018-09-15T05:23:01.701Z,62.19
2018-09-15T05:24:01.718Z,62.25
2018-09-15T05:25:02.088Z,62.11
2018-09-15T05:26:01.822Z,62.08
2018-09-15T05:27:02.075Z,61.99
2018-09-15T05:28:01.695Z,62.12
2018-09-15T05:29:01.801Z,62.02
2018-09-15T05:30:02.111Z,61.95
2018-09-15T05:31:02.076Z,62.33
2018-09-15T05:32:01.828Z,62.2
2018-09-15T05:33:01.780Z,61.88
2018-09-15T05:34:01.817Z,61.8
2018-09-15T05:35:01.825Z,61.77
2018-09-15T05:36:02.048Z,62.17
2018-09-15T05:37:02.087Z,62.01
2018-09-15T05:38:01.725Z,61.92
2018-09-15T05:39:01.830Z,62.14
2018-09-15T05:40:02.451Z,61.84
2018-09-15T05:41:01.735Z,62.15
2018-09-15T05:42:01.813Z,62.39
2018-09-15T05:43:01.692Z,61.75
2018-09-15T05:44:01.707Z,62.11
2018-09-15T05:45:01.707Z,61.8
2018-09-15T05:46:01.928Z,62.06
2018-09-15T05:47:01.738Z,61.89
2018-09-15T05:48:01.760Z,62.35
2018-09-15T05:49:02.090Z,62.2
2018-09-15T05:50:01.809Z,61.92
2018-09-15T05:51:01.777Z,62.03
2018-09-15T05:52:02.013Z,61.94
2018-09-15T05:53:01.927Z,62.15
2018-09-15T05:54:01.850Z,62.11
2018-09-15T05:55:01.808Z,61.86
2018-09-15T05:56:01.847Z,62.19
2018-09-15T05:57:02.085Z,62.05
2018-09-15T05:58:01.912Z,62.01
2018-09-15T05:59:01.648Z,62.37
2018-09-15T06:00:01.842Z,62.05
2018-09-15T06:01:01.680Z,62.17
2018-09-15T06:02:01.885Z,62.22
2018-09-15T06:03:02.001Z,61.9
2018-09-15T06:04:01.842Z,61.95
2018-09-15T06:05:01.661Z,61.38
2018-09-15T06:06:02.054Z,59.5
2018-09-15T06:07:01.882Z,59.19
2018-09-15T06:08:01.796Z,58.45
2018-09-15T06:09:01.771Z,58.57
2018-09-15T06:10:01.772Z,58.1
2018-09-15T06:11:02.167Z,58.02
2018-09-15T06:12:01.936Z,57.92
2018-09-15T06:13:01.885Z,58.05
2018-09-15T06:14:01.979Z,57.63
2018-09-15T06:15:01.766Z,58.01
2018-09-15T06:16:01.648Z,58.06
2018-09-15T06:17:01.732Z,58.48
2018-09-15T06:18:01.809Z,58.22
2018-09-15T06:19:02.094Z,58.58
2018-09-15T06:20:01.899Z,58.85
2018-09-15T06:21:01.893Z,59.08
2018-09-15T06:22:01.790Z,59.13
2018-09-15T06:23:01.867Z,59.26
2018-09-15T06:24:01.728Z,59.38
2018-09-15T06:25:01.720Z,59.32
2018-09-15T06:26:01.753Z,59.41
2018-09-15T06:27:01.843Z,59.34
2018-09-15T06:28:01.704Z,59.4
2018-09-15T06:29:01.679Z,59.45
2018-09-15T06:30:02.074Z,59.47
2018-09-15T06:31:02.065Z,59.86
2018-09-15T06:32:01.977Z,59.94
2018-09-15T06:33:02.129Z,59.9
2018-09-15T06:34:01.787Z,59.83
2018-09-15T06:35:02.359Z,59.89
2018-09-15T06:36:01.858Z,60.11
2018-09-15T06:37:01.951Z,59.97
2018-09-15T06:38:01.610Z,60.05
2018-09-15T06:39:01.808Z,59.79
2018-09-15T06:40:01.834Z,59.99
2018-09-15T06:41:01.616Z,60.23
2018-09-15T06:42:01.843Z,60.21
2018-09-15T06:43:01.848Z,59.98
2018-09-15T06:44:01.685Z,60.03
2018-09-15T06:45:02.020Z,60.37
2018-09-15T06:46:01.898Z,60.14
2018-09-15T06:47:01.742Z,60.22
2018-09-15T06:48:01.760Z,60.41
2018-09-15T06:49:01.875Z,60.31
2018-09-15T06:50:01.717Z,60.13
2018-09-15T06:51:01.705Z,60.29
2018-09-15T06:52:01.863Z,60.25
2018-09-15T06:53:01.796Z,60.05
2018-09-15T06:54:01.736Z,60.19
2018-09-15T06:55:01.782Z,60.51
2018-09-15T06:56:01.583Z,60.51
2018-09-15T06:57:01.865Z,60.21
2018-09-15T06:58:01.707Z,60.44
2018-09-15T06:59:01.891Z,60.31
2018-09-15T07:00:01.848Z,60.76
2018-09-15T07:01:01.937Z,60.4
2018-09-15T07:02:01.707Z,60.36
2018-09-15T07:03:01.807Z,60.33
2018-09-15T07:04:01.687Z,60.41
2018-09-15T07:05:01.704Z,60.6
2018-09-15T07:06:01.809Z,60.57
2018-09-15T07:07:01.796Z,60.63
2018-09-15T07:08:01.741Z,60.42
2018-09-15T07:09:01.822Z,60.44
2018-09-15T07:10:01.905Z,60.56
2018-09-15T07:11:01.701Z,60.19
2018-09-15T07:12:01.727Z,60.43
2018-09-15T07:13:01.983Z,60.53
2018-09-15T07:14:02.008Z,60.36
2018-09-15T07:15:01.844Z,60.84
2018-09-15T07:16:01.921Z,60.54
2018-09-15T07:17:02.109Z,60.48
2018-09-15T07:18:01.950Z,60.47
2018-09-15T07:19:01.704Z,60.62
2018-09-15T07:20:01.908Z,60.72
2018-09-15T07:21:01.781Z,60.64
2018-09-15T07:22:01.780Z,60.56
2018-09-15T07:23:02.009Z,60.35
2018-09-15T07:24:01.785Z,60.7
2018-09-15T07:25:01.807Z,60.41
2018-09-15T07:26:02.101Z,60.48
2018-09-15T07:27:01.749Z,60.61
2018-09-15T07:28:01.814Z,60.53
2018-09-15T07:29:02.019Z,60.57
2018-09-15T07:30:01.857Z,60.62
2018-09-15T07:31:01.768Z,60.78
2018-09-15T07:32:01.951Z,60.46
2018-09-15T07:33:01.728Z,60.62
2018-09-15T07:34:01.725Z,60.73
2018-09-15T07:35:01.695Z,60.61
2018-09-15T07:36:01.806Z,59.62
2018-09-15T07:37:01.576Z,59.5
2018-09-15T07:38:01.951Z,59.12
2018-09-15T07:39:02.071Z,59.3
2018-09-15T07:40:01.870Z,59.73
2018-09-15T07:41:01.759Z,59.59
2018-09-15T07:42:01.742Z,59.98
2018-09-15T07:43:01.779Z,60.26
2018-09-15T07:44:02.069Z,60.71
2018-09-15T07:45:01.977Z,60.48
2018-09-15T07:46:01.865Z,59.28
2018-09-15T07:47:02.015Z,59.28
2018-09-15T07:48:01.724Z,59.14
2018-09-15T07:49:01.926Z,59.28
2018-09-15T07:50:01.593Z,59.31
2018-09-15T07:51:01.774Z,59.46
2018-09-15T07:52:01.888Z,59.86
2018-09-15T07:53:01.870Z,59.81
2018-09-15T07:54:01.726Z,60.13
2018-09-15T07:55:01.765Z,60
2018-09-15T07:56:01.767Z,60.24
2018-09-15T07:57:01.934Z,60.06
2018-09-15T07:58:02.615Z,59.9
2018-09-15T07:59:01.692Z,60.16
2018-09-15T08:00:01.741Z,60.14
2018-09-15T08:01:01.748Z,60.31
2018-09-15T08:02:01.943Z,60.6
2018-09-15T08:03:01.644Z,58.31
2018-09-15T08:04:01.704Z,57.46
2018-09-15T08:05:01.799Z,57.34
2018-09-15T08:06:01.852Z,56.02
2018-09-15T08:07:01.624Z,56.52
2018-09-15T08:08:01.774Z,56.19
2018-09-15T08:09:01.729Z,55.94
2018-09-15T08:10:01.883Z,56
2018-09-15T08:11:01.879Z,55.59
2018-09-15T08:12:01.867Z,55.7
2018-09-15T08:13:01.999Z,55.45
2018-09-15T08:14:01.740Z,55.21
2018-09-15T08:15:01.754Z,55.19
2018-09-15T08:16:01.839Z,55.03
2018-09-15T08:17:01.861Z,54.69
2018-09-15T08:18:01.681Z,54.96
2018-09-15T08:19:01.902Z,54.68
2018-09-15T08:20:01.806Z,54.5
2018-09-15T08:21:01.633Z,54.17
2018-09-15T08:22:01.890Z,54.44
2018-09-15T08:23:01.819Z,54.46
2018-09-15T08:24:01.791Z,54.45
2018-09-15T08:25:01.759Z,54.43
2018-09-15T08:26:01.985Z,54.31
2018-09-15T08:27:01.711Z,54.37
2018-09-15T08:28:01.926Z,54.3
2018-09-15T08:29:01.686Z,54.41
2018-09-15T08:30:01.821Z,54.69
2018-09-15T08:31:01.797Z,54.6
2018-09-15T08:32:01.991Z,54.38
2018-09-15T08:33:01.702Z,54.65
2018-09-15T08:34:01.776Z,54.96
2018-09-15T08:35:02.139Z,54.75
2018-09-15T08:36:02.006Z,54.6
2018-09-15T08:37:01.753Z,54.1
2018-09-15T08:38:01.714Z,54.24
2018-09-15T08:39:01.835Z,54.23
2018-09-15T08:40:02.101Z,54.43
2018-09-15T08:41:01.865Z,54.19
2018-09-15T08:42:01.657Z,53.94
2018-09-15T08:43:01.882Z,54.1
2018-09-15T08:44:01.582Z,54.23
2018-09-15T08:45:01.924Z,53.89
2018-09-15T08:46:01.736Z,54.17
2018-09-15T08:47:01.996Z,54.15
2018-09-15T08:48:01.835Z,54.11
2018-09-15T08:49:01.801Z,54.14
2018-09-15T08:50:01.821Z,53.99
2018-09-15T08:51:01.949Z,54.12
2018-09-15T08:52:01.701Z,54
2018-09-15T08:53:01.851Z,53.46
2018-09-15T08:54:02.178Z,53.92
2018-09-15T08:55:02.026Z,54.02
2018-09-15T08:56:01.981Z,54.06
2018-09-15T08:57:01.725Z,53.57
2018-09-15T08:58:01.678Z,53.86
2018-09-15T08:59:01.910Z,53.93
2018-09-15T09:00:01.727Z,54.07
2018-09-15T09:01:01.887Z,53.83
2018-09-15T09:02:01.854Z,53.65
2018-09-15T09:03:01.865Z,54.05
2018-09-15T09:04:01.828Z,53.92
2018-09-15T09:05:01.750Z,54.09
2018-09-15T09:06:02.155Z,54.08
2018-09-15T09:07:01.722Z,54.03
2018-09-15T09:08:01.769Z,54.15
2018-09-15T09:09:01.820Z,53.87
2018-09-15T09:10:01.772Z,53.91
2018-09-15T09:11:02.210Z,53.7
2018-09-15T09:12:01.610Z,53.66
2018-09-15T09:13:01.698Z,53.4
2018-09-15T09:14:01.769Z,53.42
2018-09-15T09:15:01.870Z,53.47
2018-09-15T09:16:01.823Z,53.4
2018-09-15T09:17:01.800Z,53.58
2018-09-15T09:18:01.877Z,53.62
2018-09-15T09:19:01.865Z,53.55
2018-09-15T09:20:02.073Z,53.58
2018-09-15T09:21:01.728Z,53.39
2018-09-15T09:22:01.830Z,53.84
2018-09-15T09:23:01.710Z,53.89
2018-09-15T09:24:01.610Z,53.69
2018-09-15T09:25:01.772Z,53.81
2018-09-15T09:26:01.844Z,53.41
2018-09-15T09:27:01.646Z,53.36
2018-09-15T09:28:01.732Z,53.09
2018-09-15T09:29:01.729Z,52.87
2018-09-15T09:30:01.774Z,53.6
2018-09-15T09:31:01.736Z,53.52
2018-09-15T09:32:01.739Z,53.39
2018-09-15T09:33:01.584Z,53.85
2018-09-15T09:34:01.598Z,53.79
2018-09-15T09:35:01.701Z,54.03
2018-09-15T09:36:01.706Z,53.7
2018-09-15T09:37:01.769Z,53.67
2018-09-15T09:38:01.784Z,54.03
2018-09-15T09:39:01.852Z,54.17
2018-09-15T09:40:01.999Z,53.86
2018-09-15T09:41:01.820Z,53.91
2018-09-15T09:42:01.814Z,54.09
2018-09-15T09:43:01.838Z,54.06
2018-09-15T09:44:01.636Z,54.02
2018-09-15T09:45:01.782Z,54.06
2018-09-15T09:46:02.234Z,54.45
2018-09-15T09:47:01.846Z,54.18
2018-09-15T09:48:02.198Z,54.16
2018-09-15T09:49:01.719Z,54.09
2018-09-15T09:50:01.757Z,54.01
2018-09-15T09:51:02.122Z,54.17
2018-09-15T09:52:01.680Z,54.08
2018-09-15T09:53:01.730Z,53.55
2018-09-15T09:54:01.740Z,53.67
2018-09-15T09:55:01.846Z,53.45
2018-09-15T09:56:01.851Z,53.51
2018-09-15T09:57:01.766Z,53.52
2018-09-15T09:58:01.731Z,53.37
2018-09-15T09:59:01.801Z,53.56
2018-09-15T10:00:01.771Z,53.62
2018-09-15T10:01:01.989Z,53.57
2018-09-15T10:02:01.757Z,53.32
2018-09-15T10:03:01.745Z,53.56
2018-09-15T10:04:01.941Z,53.59
2018-09-15T10:05:01.740Z,53.84
2018-09-15T10:06:01.761Z,53.76
2018-09-15T10:07:01.962Z,53.44
2018-09-15T10:08:01.874Z,52.94
2018-09-15T10:09:01.941Z,52.67
2018-09-15T10:10:01.750Z,52.47
2018-09-15T10:11:01.816Z,52.57
2018-09-15T10:12:01.806Z,52.87
2018-09-15T10:13:01.921Z,53.32
2018-09-15T10:14:01.810Z,53.57
2018-09-15T10:15:01.855Z,54.06
2018-09-15T10:16:01.968Z,54.25
2018-09-15T10:17:02.046Z,54.4
2018-09-15T10:18:01.917Z,54.64
2018-09-15T10:19:01.914Z,54.46
2018-09-15T10:20:01.869Z,54.53
2018-09-15T10:21:01.737Z,54.58
2018-09-15T10:22:01.723Z,55.14
2018-09-15T10:23:02.484Z,55.49
2018-09-15T10:24:01.651Z,55.32
2018-09-15T10:25:03.997Z,55.55
2018-09-15T10:26:01.799Z,55.15
2018-09-15T10:27:01.838Z,55.55
2018-09-15T10:28:01.712Z,55.24
2018-09-15T10:29:01.868Z,55.56
2018-09-15T10:30:01.739Z,55.42
2018-09-15T10:31:01.690Z,55.34
2018-09-15T10:32:02.026Z,55.6
2018-09-15T10:33:01.580Z,55.42
2018-09-15T10:34:01.664Z,55.69
2018-09-15T10:35:01.609Z,55.68
2018-09-15T10:36:01.868Z,55.95
2018-09-15T10:37:01.807Z,55.73
2018-09-15T10:38:02.150Z,55.98
2018-09-15T10:39:01.724Z,55.96
2018-09-15T10:40:01.832Z,55.98
2018-09-15T10:41:01.866Z,55.69
2018-09-15T10:42:01.913Z,56.01
2018-09-15T10:43:01.925Z,55.94
2018-09-15T10:44:02.003Z,56.21
2018-09-15T10:45:01.736Z,56.44
2018-09-15T10:46:02.006Z,56.15
2018-09-15T10:47:01.623Z,56.21
2018-09-15T10:48:01.849Z,55.91
2018-09-15T10:49:01.751Z,56.11
2018-09-15T10:50:01.718Z,56.07
2018-09-15T10:51:01.776Z,56.32
2018-09-15T10:52:01.822Z,56.65
2018-09-15T10:53:01.698Z,56.24
2018-09-15T10:54:01.862Z,56.61
2018-09-15T10:55:01.764Z,56.46
2018-09-15T10:56:01.630Z,56.52
2018-09-15T10:57:01.701Z,56.35
2018-09-15T10:58:01.706Z,56.18
2018-09-15T10:59:01.652Z,56.52
2018-09-15T11:00:01.747Z,56.49
2018-09-15T11:01:01.788Z,56.78
2018-09-15T11:02:01.968Z,56.42
2018-09-15T11:03:01.818Z,56.34
2018-09-15T11:04:01.723Z,56.45
2018-09-15T11:05:01.714Z,56.32
2018-09-15T11:06:01.827Z,56.37
2018-09-15T11:07:02.064Z,56.56
2018-09-15T11:08:02.045Z,56.33
2018-09-15T11:09:01.715Z,56.74
2018-09-15T11:10:01.646Z,56.62
2018-09-15T11:11:01.696Z,56.72
2018-09-15T11:12:01.922Z,56.57
2018-09-15T11:13:01.728Z,56.56
2018-09-15T11:14:01.677Z,56.71
2018-09-15T11:15:01.837Z,56.94
2018-09-15T11:16:01.939Z,57
2018-09-15T11:17:03.162Z,56.64
2018-09-15T11:18:01.522Z,56.94
2018-09-15T11:19:01.766Z,57.17
2018-09-15T11:20:01.880Z,57.02
2018-09-15T11:21:02.047Z,56.97
2018-09-15T11:22:01.597Z,56.91
2018-09-15T11:23:01.841Z,56.85
2018-09-15T11:24:01.720Z,57.1
2018-09-15T11:25:01.865Z,57.02
2018-09-15T11:26:02.028Z,57.24
2018-09-15T11:27:01.779Z,57.12
2018-09-15T11:28:03.000Z,56.91
2018-09-15T11:29:01.872Z,57.05
2018-09-15T11:30:01.753Z,57.29
2018-09-15T11:31:01.968Z,57.02
2018-09-15T11:32:01.531Z,57.35
2018-09-15T11:33:01.617Z,57.15
2018-09-15T11:34:02.022Z,57.11
2018-09-15T11:35:01.798Z,57.15
2018-09-15T11:36:01.665Z,57.2
2018-09-15T11:37:01.867Z,57.11
2018-09-15T11:38:01.849Z,57.24
2018-09-15T11:39:01.867Z,57.24
2018-09-15T11:40:01.883Z,57.29
2018-09-15T11:41:02.078Z,57.37
2018-09-15T11:42:01.833Z,57.21
2018-09-15T11:43:01.718Z,57.23
2018-09-15T11:44:01.668Z,57.02
2018-09-15T11:45:01.795Z,57.54
2018-09-15T11:46:02.058Z,57.2
2018-09-15T11:47:01.758Z,57.41
2018-09-15T11:48:02.064Z,57.29
2018-09-15T11:49:01.977Z,57.03
2018-09-15T11:50:01.520Z,56.97
2018-09-15T11:51:01.969Z,57.32
2018-09-15T11:52:01.781Z,57.2
2018-09-15T11:53:01.611Z,57.34
2018-09-15T11:54:01.643Z,57.18
2018-09-15T11:55:01.609Z,57.3
2018-09-15T11:56:02.164Z,57.34
2018-09-15T11:57:01.635Z,57.67
2018-09-15T11:58:01.665Z,57.42
2018-09-15T11:59:01.742Z,57.3
2018-09-15T12:00:02.062Z,57.62
2018-09-15T12:01:01.823Z,57.45
2018-09-15T12:02:02.205Z,57.26
2018-09-15T12:03:01.804Z,57.57
2018-09-15T12:04:01.708Z,57.58
2018-09-15T12:05:01.724Z,57.51
2018-09-15T12:06:01.638Z,57.16
2018-09-15T12:07:01.766Z,57.63
2018-09-15T12:08:01.627Z,57.21
2018-09-15T12:09:01.655Z,57.51
2018-09-15T12:10:01.771Z,57.42
2018-09-15T12:11:01.768Z,57.6
2018-09-15T12:12:01.846Z,57.71
2018-09-15T12:13:01.939Z,57.7
2018-09-15T12:14:01.839Z,57.63
2018-09-15T12:15:01.752Z,57.95
2018-09-15T12:16:01.740Z,57.34
2018-09-15T12:17:01.759Z,57.69
2018-09-15T12:18:01.736Z,57.66
2018-09-15T12:19:01.855Z,57.75
2018-09-15T12:20:01.647Z,57.87
2018-09-15T12:21:01.682Z,57.57
2018-09-15T12:22:01.689Z,57.79
2018-09-15T12:23:01.559Z,57.28
2018-09-15T12:24:01.702Z,57.89
2018-09-15T12:25:01.737Z,57.38
2018-09-15T12:26:02.015Z,57.61
2018-09-15T12:27:01.941Z,57.35
2018-09-15T12:28:01.931Z,57.32
2018-09-15T12:29:01.721Z,57.59
2018-09-15T12:30:01.907Z,57.52
2018-09-15T12:31:02.006Z,57.49
2018-09-15T12:32:01.784Z,57.75
2018-09-15T12:33:02.017Z,57.47
2018-09-15T12:34:02.021Z,57.63
2018-09-15T12:35:01.700Z,57.4
2018-09-15T12:36:01.965Z,57.19
2018-09-15T12:36:58.770Z,57.77
2018-09-15T12:37:58.851Z,57.43
2018-09-15T12:38:59.228Z,57.3
2018-09-15T12:39:58.641Z,57.82
2018-09-15T12:40:58.627Z,57.63
2018-09-15T12:41:58.717Z,57.45
2018-09-15T12:42:59.024Z,57.74
2018-09-15T12:43:24.986Z,57.83
2018-09-15T12:44:24.884Z,57.53
2018-09-15T12:45:24.854Z,57.34
2018-09-15T12:46:09.575Z,57.31
2018-09-15T12:47:09.685Z,56.94
2018-09-15T12:48:09.712Z,57.37
2018-09-15T12:49:15.918Z,57.11
2018-09-15T12:50:16.203Z,57.5
2018-09-15T12:51:16.207Z,57.44
2018-09-15T12:52:16.250Z,57.58
2018-09-15T12:53:15.988Z,57.74
2018-09-15T12:54:16.422Z,57.44